»·PEaware :: WAT2489 KGPI-KWYS

WAT2489 :: KGPI-KWYS

FLIGHT INFORMATION

Flight Status: Arrived
Operator:
Walker Air Transport
More flights by this operator :: More flights under this callsign
Pilot: Graham D. (41507)
Aircraft: CESSNA 310
(C310)
More flights by this aircraft type
Origin: KGPI Glacier Park Intl
United States
Destination: KWYS Yellowstone
United States
More flights between these airports :: More routes between these airports
Route: SKOTT2 SKOTT V231 MSO V86 BZN V343 RANEY
File this flight plan on PilotEdge
Remarks:
Altitude:
(Current/Filed)
13,000ft
Speed:
(Current/Filed)
185kts
Departed: 30-Sep-22 12:01 PM
Arrived: 30-Sep-22 01:37 PM
Distance/Time
Traveled:
253nm/1:36
Distance/Time
To Go:
Arrived

Flight Plot

Page will automatically refresh every two minutes.

Flight plan parsing failed; only flown route is shown


Map Options




Map Legend


Flown Route
Filed Route
Departure Airport
Arrival Airport
Navaid (VOR, NDB)
Fix

Horizontal Profiles

Position Reports

Time Latitude Longitude Heading Altitude Ground
Speed
30-Sep-22 11:42 48.310494 -114.250710 182 2967ft 0kts
30-Sep-22 11:43 48.310494 -114.250710 182 2967ft 0kts
30-Sep-22 11:44 48.310494 -114.250710 182 2967ft 0kts
30-Sep-22 11:45 48.310494 -114.250710 182 2967ft 0kts
30-Sep-22 11:46 48.310494 -114.250710 182 2967ft 0kts
30-Sep-22 11:47 48.310494 -114.250710 182 2967ft 0kts
30-Sep-22 11:48 48.310494 -114.250710 182 2967ft 0kts
30-Sep-22 11:49 48.310494 -114.250710 182 2967ft 0kts
30-Sep-22 11:50 48.310494 -114.250710 182 2967ft 0kts
30-Sep-22 11:51 48.310494 -114.250710 182 2967ft 0kts
30-Sep-22 11:52 48.310494 -114.250710 182 2967ft 0kts
30-Sep-22 11:53 48.310494 -114.250710 182 2967ft 0kts
30-Sep-22 11:54 48.310494 -114.250710 182 2967ft 0kts
30-Sep-22 11:55 48.310310 -114.252962 277 2967ft 12kts
30-Sep-22 11:56 48.307765 -114.256271 215 2965ft 13kts
30-Sep-22 11:57 48.303974 -114.260166 213 2963ft 16kts
30-Sep-22 11:58 48.299877 -114.264481 215 2959ft 16kts
30-Sep-22 11:59 48.298417 -114.266348 267 2960ft 0kts
30-Sep-22 12:00 48.301798 -114.264579 31 2963ft 81kts
30-Sep-22 12:01 48.330664 -114.239870 349 4572ft 120kts
30-Sep-22 12:02 48.325402 -114.276769 175 6317ft 135kts
30-Sep-22 12:03 48.287165 -114.250171 146 7383ft 148kts
30-Sep-22 12:04 48.252993 -114.215450 146 8283ft 152kts
30-Sep-22 12:05 48.215519 -114.178270 158 8905ft 165kts
30-Sep-22 12:06 48.168855 -114.172595 177 9551ft 168kts
30-Sep-22 12:07 48.120874 -114.169278 176 10161ft 173kts
30-Sep-22 12:08 48.071508 -114.165759 176 10771ft 178kts
30-Sep-22 12:09 48.020688 -114.162272 176 11400ft 179kts
30-Sep-22 12:10 47.970635 -114.158563 174 11985ft 180kts
30-Sep-22 12:11 47.920073 -114.154944 175 12597ft 180kts
30-Sep-22 12:12 47.868307 -114.151255 175 13046ft 199kts
30-Sep-22 12:13 47.808955 -114.147041 175 13031ft 216kts
30-Sep-22 12:14 47.748071 -114.142759 175 13027ft 219kts
30-Sep-22 12:15 47.686883 -114.138485 175 13026ft 219kts
30-Sep-22 12:16 47.625819 -114.134298 175 13027ft 219kts
30-Sep-22 12:17 47.564819 -114.130005 175 13028ft 219kts
30-Sep-22 12:18 47.503093 -114.125656 175 13025ft 220kts
30-Sep-22 12:19 47.440345 -114.121243 175 13031ft 220kts
30-Sep-22 12:20 47.374932 -114.116640 175 13035ft 219kts
30-Sep-22 12:21 47.311433 -114.112200 175 13038ft 218kts
30-Sep-22 12:22 47.249840 -114.107903 175 13035ft 216kts
30-Sep-22 12:23 47.185519 -114.103405 174 13036ft 214kts
30-Sep-22 12:24 47.122132 -114.099842 178 13037ft 211kts
30-Sep-22 12:25 47.060240 -114.096047 174 13036ft 207kts
30-Sep-22 12:26 46.999767 -114.091189 174 13036ft 204kts
30-Sep-22 12:27 46.940805 -114.086614 174 13036ft 200kts
30-Sep-22 12:28 46.891337 -114.057378 131 13034ft 186kts
30-Sep-22 12:29 46.855970 -114.002906 129 13038ft 182kts
30-Sep-22 12:30 46.820231 -113.947233 129 13045ft 181kts
30-Sep-22 12:31 46.784804 -113.892405 130 13052ft 185kts
30-Sep-22 12:32 46.748988 -113.836861 130 13058ft 188kts
30-Sep-22 12:33 46.712697 -113.780659 130 13064ft 191kts
30-Sep-22 12:34 46.675735 -113.723570 130 13064ft 194kts
30-Sep-22 12:35 46.638306 -113.665880 130 13064ft 196kts
30-Sep-22 12:36 46.600486 -113.607712 130 13063ft 199kts
30-Sep-22 12:37 46.562176 -113.548921 130 13064ft 201kts
30-Sep-22 12:38 46.523383 -113.489515 130 13063ft 203kts
30-Sep-22 12:39 46.484256 -113.429727 130 13063ft 204kts
30-Sep-22 12:40 46.444779 -113.369528 130 13063ft 206kts
30-Sep-22 12:41 46.404864 -113.308808 131 13065ft 208kts
30-Sep-22 12:42 46.364672 -113.247803 131 13064ft 209kts
30-Sep-22 12:43 46.324303 -113.186693 131 13064ft 210kts
30-Sep-22 12:44 46.283600 -113.125210 131 13064ft 210kts
30-Sep-22 12:45 46.242377 -113.063078 131 13064ft 210kts
30-Sep-22 12:46 46.199959 -112.999314 131 13057ft 210kts
30-Sep-22 12:47 46.156260 -112.933806 131 13053ft 210kts
30-Sep-22 12:48 46.111642 -112.866780 131 13048ft 211kts
30-Sep-22 12:49 46.069874 -112.804486 131 13042ft 211kts
30-Sep-22 12:50 46.030449 -112.742186 115 13046ft 209kts
30-Sep-22 12:51 46.008151 -112.665965 111 13054ft 207kts
30-Sep-22 12:52 45.985072 -112.587705 110 13051ft 209kts
30-Sep-22 12:53 45.962745 -112.511612 111 13054ft 209kts
30-Sep-22 12:54 45.940111 -112.435257 110 13049ft 208kts
30-Sep-22 12:55 45.917434 -112.358116 111 13025ft 210kts
30-Sep-22 12:56 45.895462 -112.284137 111 13035ft 209kts
30-Sep-22 12:57 45.875010 -112.215760 112 13028ft 210kts
30-Sep-22 12:58 45.859606 -112.140365 95 13039ft 207kts
30-Sep-22 12:59 45.853334 -112.058574 95 13025ft 208kts
30-Sep-22 13:01 45.846868 -111.969801 94 13021ft 208kts
30-Sep-22 13:02 45.840443 -111.884685 95 13004ft 209kts
30-Sep-22 13:03 45.834120 -111.801076 94 12963ft 210kts
30-Sep-22 13:04 45.827881 -111.715999 93 12971ft 212kts
30-Sep-22 13:05 45.821246 -111.629586 95 12956ft 212kts
30-Sep-22 13:06 45.814307 -111.543666 94 12975ft 211kts
30-Sep-22 13:07 45.807399 -111.454741 93 12973ft 212kts
30-Sep-22 13:08 45.800422 -111.366375 96 12966ft 212kts
30-Sep-22 13:09 45.793420 -111.277580 95 12954ft 215kts
30-Sep-22 13:10 45.773649 -111.195685 142 13196ft 206kts
30-Sep-22 13:11 45.715263 -111.198800 203 13716ft 201kts
30-Sep-22 13:12 45.659546 -111.235450 204 13982ft 204kts
30-Sep-22 13:13 45.602339 -111.272286 203 13980ft 204kts
30-Sep-22 13:14 45.546024 -111.308162 203 13995ft 199kts
30-Sep-22 13:15 45.491225 -111.317412 142 14018ft 188kts
30-Sep-22 13:16 45.446540 -111.268316 146 13585ft 200kts
30-Sep-22 13:17 45.397984 -111.226299 149 13071ft 200kts
30-Sep-22 13:18 45.351195 -111.186797 148 12830ft 181kts
30-Sep-22 13:19 45.309334 -111.151521 149 12795ft 164kts
30-Sep-22 13:20 45.270967 -111.119246 149 12794ft 148kts
30-Sep-22 13:21 45.234889 -111.088996 149 12793ft 144kts
30-Sep-22 13:22 45.201394 -111.060918 149 12784ft 134kts
30-Sep-22 13:23 45.168056 -111.033054 149 12787ft 141kts
30-Sep-22 13:24 45.133187 -111.003918 149 12777ft 142kts
30-Sep-22 13:24 45.103775 -110.979428 150 12767ft 143kts
30-Sep-22 13:25 45.068268 -110.950129 148 12786ft 144kts
30-Sep-22 13:27 45.024270 -110.913035 150 12751ft 153kts
30-Sep-22 13:28 44.979888 -110.914503 207 12356ft 162kts
30-Sep-22 13:29 44.935454 -110.946062 207 11842ft 167kts
30-Sep-22 13:29 44.901887 -110.969200 207 11187ft 127kts
30-Sep-22 13:30 44.868455 -110.992699 207 10439ft 135kts
30-Sep-22 13:31 44.831155 -111.018589 207 9585ft 140kts
30-Sep-22 13:33 44.786894 -111.049359 207 8654ft 132kts
30-Sep-22 13:34 44.751909 -111.073671 208 7835ft 126kts
30-Sep-22 13:34 44.724805 -111.092448 209 7241ft 109kts
30-Sep-22 13:35 44.696852 -111.111759 211 6631ft 88kts
30-Sep-22 13:36 44.691218 -111.114087 178 6635ft 0kts
30-Sep-22 13:37 44.688543 -111.114998 115 6637ft 9kts
30-Sep-22 13:38 44.688431 -111.114194 39 6639ft 0kts

Navigation Log

Ident Type
Flight plan parsing failed, navigation log unavailable